Aledo, Texas
Current Conditions -  °F | °C
As of 4:09 AM on Thursday 18 Dec 2014 (Local Time) from KNFW Reporting Station
Haze Haze  
Wind Chill:   Ceiling: 300
Heat Index:   Visibility: 3mi
Dew Point:   Wind: 6mph
Humidity: 80%   Direction: 100°E
Pressure: 30.14"   Gusts: NA
Location:  32.7°N, 97.6°W
Report Text: KNFW 181009Z AUTO 10005KT 3SM HZ OVC003 08/05 A3014 RMK AO2 T00830050
Loading
Personal Weather Stations






























Interactive Weather Map New forecast layout! Learn more

10-Day Weather Forecast

Advertisements
Track Severe Weather on mobile